sensor_id;sensor_type;location;lat;lon;timestamp;temperature;humidity
15455;DHT22;21057;51.024;7.540;2023-05-17T00:00:19;9.60;99.90
15455;DHT22;21057;51.024;7.540;2023-05-17T00:02:46;9.60;99.90
15455;DHT22;21057;51.024;7.540;2023-05-17T00:05:14;9.70;99.90
15455;DHT22;21057;51.024;7.540;2023-05-17T00:07:41;9.60;99.90
15455;DHT22;21057;51.024;7.540;2023-05-17T00:10:08;9.60;99.90
15455;DHT22;21057;51.024;7.540;2023-05-17T00:12:35;9.60;99.90
15455;DHT22;21057;51.024;7.540;2023-05-17T00:15:02;9.50;99.90
15455;DHT22;21057;51.024;7.540;2023-05-17T00:17:29;9.40;99.90
15455;DHT22;21057;51.024;7.540;2023-05-17T00:19:56;9.40;99.90
15455;DHT22;21057;51.024;7.540;2023-05-17T00:22:24;9.30;99.90
15455;DHT22;21057;51.024;7.540;2023-05-17T00:24:52;9.20;99.90
15455;DHT22;21057;51.024;7.540;2023-05-17T00:27:19;9.10;99.90
15455;DHT22;21057;51.024;7.540;2023-05-17T00:29:45;9.20;99.90
15455;DHT22;21057;51.024;7.540;2023-05-17T00:32:12;9.30;99.90
15455;DHT22;21057;51.024;7.540;2023-05-17T00:34:39;9.30;99.90
15455;DHT22;21057;51.024;7.540;2023-05-17T00:37:06;9.40;99.90
15455;DHT22;21057;51.024;7.540;2023-05-17T00:39:34;9.40;99.90
15455;DHT22;21057;51.024;7.540;2023-05-17T00:42:00;9.40;99.90
15455;DHT22;21057;51.024;7.540;2023-05-17T00:44:27;9.20;99.90
15455;DHT22;21057;51.024;7.540;2023-05-17T00:46:54;9.20;99.90
15455;DHT22;21057;51.024;7.540;2023-05-17T00:49:24;9.40;99.90
15455;DHT22;21057;51.024;7.540;2023-05-17T00:51:52;9.40;99.90
15455;DHT22;21057;51.024;7.540;2023-05-17T00:54:19;9.40;99.90
15455;DHT22;21057;51.024;7.540;2023-05-17T00:56:47;9.30;99.90
15455;DHT22;21057;51.024;7.540;2023-05-17T00:59:14;9.20;99.90
15455;DHT22;21057;51.024;7.540;2023-05-17T01:01:42;9.20;99.90
15455;DHT22;21057;51.024;7.540;2023-05-17T01:04:09;9.10;99.90
15455;DHT22;21057;51.024;7.540;2023-05-17T01:06:36;9.20;99.90
15455;DHT22;21057;51.024;7.540;2023-05-17T01:09:04;9.30;99.90
15455;DHT22;21057;51.024;7.540;2023-05-17T01:11:38;9.30;99.90
15455;DHT22;21057;51.024;7.540;2023-05-17T01:14:23;9.30;99.90
15455;DHT22;21057;51.024;7.540;2023-05-17T01:16:55;9.20;99.90
15455;DHT22;21057;51.024;7.540;2023-05-17T01:22:43;9.10;99.90
15455;DHT22;21057;51.024;7.540;2023-05-17T01:25:41;8.90;99.90
15455;DHT22;21057;51.024;7.540;2023-05-17T01:28:13;8.80;99.90
15455;DHT22;21057;51.024;7.540;2023-05-17T01:30:41;8.80;99.90
15455;DHT22;21057;51.024;7.540;2023-05-17T01:33:09;8.80;99.90
15455;DHT22;21057;51.024;7.540;2023-05-17T01:35:36;8.70;99.90
15455;DHT22;21057;51.024;7.540;2023-05-17T01:38:03;8.70;99.90
15455;DHT22;21057;51.024;7.540;2023-05-17T01:40:34;8.80;99.90
15455;DHT22;21057;51.024;7.540;2023-05-17T01:43:07;8.70;99.90
15455;DHT22;21057;51.024;7.540;2023-05-17T01:45:40;8.60;99.90
15455;DHT22;21057;51.024;7.540;2023-05-17T01:48:14;8.50;99.90
15455;DHT22;21057;51.024;7.540;2023-05-17T01:50:43;8.60;99.90
15455;DHT22;21057;51.024;7.540;2023-05-17T01:53:17;8.50;99.90
15455;DHT22;21057;51.024;7.540;2023-05-17T01:55:49;8.30;99.90
15455;DHT22;21057;51.024;7.540;2023-05-17T01:58:19;8.30;99.90
15455;DHT22;21057;51.024;7.540;2023-05-17T02:00:49;8.20;99.90
15455;DHT22;21057;51.024;7.540;2023-05-17T02:03:18;8.20;99.90
15455;DHT22;21057;51.024;7.540;2023-05-17T02:05:45;8.30;99.90
15455;DHT22;21057;51.024;7.540;2023-05-17T02:08:13;8.40;99.90
15455;DHT22;21057;51.024;7.540;2023-05-17T02:10:40;8.30;99.90
15455;DHT22;21057;51.024;7.540;2023-05-17T02:13:07;8.30;99.90
15455;DHT22;21057;51.024;7.540;2023-05-17T02:15:34;8.50;99.90
15455;DHT22;21057;51.024;7.540;2023-05-17T02:18:02;8.60;99.90
15455;DHT22;21057;51.024;7.540;2023-05-17T02:20:29;8.70;99.90
15455;DHT22;21057;51.024;7.540;2023-05-17T02:22:56;8.60;99.90
15455;DHT22;21057;51.024;7.540;2023-05-17T02:25:23;8.80;99.90
15455;DHT22;21057;51.024;7.540;2023-05-17T02:27:49;8.80;99.90
15455;DHT22;21057;51.024;7.540;2023-05-17T02:30:16;8.70;99.90
15455;DHT22;21057;51.024;7.540;2023-05-17T02:32:46;8.80;99.90
15455;DHT22;21057;51.024;7.540;2023-05-17T02:35:14;8.70;99.90
15455;DHT22;21057;51.024;7.540;2023-05-17T02:37:41;8.60;99.90
15455;DHT22;21057;51.024;7.540;2023-05-17T02:40:09;8.70;99.90
15455;DHT22;21057;51.024;7.540;2023-05-17T02:42:35;8.80;99.90
15455;DHT22;21057;51.024;7.540;2023-05-17T02:45:03;8.80;99.90
15455;DHT22;21057;51.024;7.540;2023-05-17T02:47:30;8.60;99.90
15455;DHT22;21057;51.024;7.540;2023-05-17T02:49:57;8.70;99.90
15455;DHT22;21057;51.024;7.540;2023-05-17T02:52:25;8.60;99.90
15455;DHT22;21057;51.024;7.540;2023-05-17T02:54:52;8.80;99.90
15455;DHT22;21057;51.024;7.540;2023-05-17T02:57:18;8.80;99.90
15455;DHT22;21057;51.024;7.540;2023-05-17T02:59:45;8.70;99.90
15455;DHT22;21057;51.024;7.540;2023-05-17T03:02:12;8.60;99.90
15455;DHT22;21057;51.024;7.540;2023-05-17T03:04:39;8.50;99.90
15455;DHT22;21057;51.024;7.540;2023-05-17T03:07:06;8.40;99.90
15455;DHT22;21057;51.024;7.540;2023-05-17T03:09:34;8.30;99.90
15455;DHT22;21057;51.024;7.540;2023-05-17T03:12:01;8.30;99.90
15455;DHT22;21057;51.024;7.540;2023-05-17T03:14:28;8.30;99.90
15455;DHT22;21057;51.024;7.540;2023-05-17T03:16:55;8.30;99.90
15455;DHT22;21057;51.024;7.540;2023-05-17T03:19:22;8.30;99.90
15455;DHT22;21057;51.024;7.540;2023-05-17T03:21:49;8.30;99.90
15455;DHT22;21057;51.024;7.540;2023-05-17T03:24:16;8.30;99.90
15455;DHT22;21057;51.024;7.540;2023-05-17T03:26:44;8.40;99.90
15455;DHT22;21057;51.024;7.540;2023-05-17T03:29:10;8.60;99.90
15455;DHT22;21057;51.024;7.540;2023-05-17T03:31:37;8.60;99.90
15455;DHT22;21057;51.024;7.540;2023-05-17T03:34:04;8.60;99.90
15455;DHT22;21057;51.024;7.540;2023-05-17T03:36:34;8.80;99.90
15455;DHT22;21057;51.024;7.540;2023-05-17T03:39:00;8.70;99.90
15455;DHT22;21057;51.024;7.540;2023-05-17T03:41:27;8.60;99.90
15455;DHT22;21057;51.024;7.540;2023-05-17T03:43:55;8.80;99.90
15455;DHT22;21057;51.024;7.540;2023-05-17T03:46:22;8.90;99.90
15455;DHT22;21057;51.024;7.540;2023-05-17T03:48:49;8.90;99.90
15455;DHT22;21057;51.024;7.540;2023-05-17T03:51:16;8.90;99.90
15455;DHT22;21057;51.024;7.540;2023-05-17T03:53:43;9.00;99.90
15455;DHT22;21057;51.024;7.540;2023-05-17T03:56:10;9.00;99.90
15455;DHT22;21057;51.024;7.540;2023-05-17T03:58:37;8.90;99.90
15455;DHT22;21057;51.024;7.540;2023-05-17T04:01:05;8.90;99.90
15455;DHT22;21057;51.024;7.540;2023-05-17T04:03:32;8.90;99.90
15455;DHT22;21057;51.024;7.540;2023-05-17T04:06:02;9.30;99.90
15455;DHT22;21057;51.024;7.540;2023-05-17T04:08:31;9.40;99.90
15455;DHT22;21057;51.024;7.540;2023-05-17T04:10:58;9.20;99.90
15455;DHT22;21057;51.024;7.540;2023-05-17T04:13:26;9.50;99.90
15455;DHT22;21057;51.024;7.540;2023-05-17T04:15:52;9.40;99.90
15455;DHT22;21057;51.024;7.540;2023-05-17T04:18:20;9.50;99.90
15455;DHT22;21057;51.024;7.540;2023-05-17T04:20:47;9.50;99.90
15455;DHT22;21057;51.024;7.540;2023-05-17T04:23:14;9.60;99.90
15455;DHT22;21057;51.024;7.540;2023-05-17T04:25:41;9.50;99.90
15455;DHT22;21057;51.024;7.540;2023-05-17T04:28:09;9.40;99.90
15455;DHT22;21057;51.024;7.540;2023-05-17T04:30:36;9.50;99.90
15455;DHT22;21057;51.024;7.540;2023-05-17T04:33:02;9.40;99.90
15455;DHT22;21057;51.024;7.540;2023-05-17T04:35:31;9.30;99.90
15455;DHT22;21057;51.024;7.540;2023-05-17T04:37:58;9.10;99.90
15455;DHT22;21057;51.024;7.540;2023-05-17T04:40:25;9.30;99.90
15455;DHT22;21057;51.024;7.540;2023-05-17T04:42:52;9.50;99.90
15455;DHT22;21057;51.024;7.540;2023-05-17T04:45:19;9.60;99.90
15455;DHT22;21057;51.024;7.540;2023-05-17T04:47:45;9.60;99.90
15455;DHT22;21057;51.024;7.540;2023-05-17T04:50:12;9.60;99.90
15455;DHT22;21057;51.024;7.540;2023-05-17T04:52:41;9.40;99.90
15455;DHT22;21057;51.024;7.540;2023-05-17T04:55:08;9.50;99.90
15455;DHT22;21057;51.024;7.540;2023-05-17T04:57:35;9.70;99.90
15455;DHT22;21057;51.024;7.540;2023-05-17T05:00:02;9.90;99.90
15455;DHT22;21057;51.024;7.540;2023-05-17T05:02:31;9.90;99.90
15455;DHT22;21057;51.024;7.540;2023-05-17T05:04:58;9.80;99.90
15455;DHT22;21057;51.024;7.540;2023-05-17T05:07:25;9.90;99.90
15455;DHT22;21057;51.024;7.540;2023-05-17T05:09:53;9.80;99.90
15455;DHT22;21057;51.024;7.540;2023-05-17T05:12:19;9.70;99.90
15455;DHT22;21057;51.024;7.540;2023-05-17T05:14:46;9.70;99.90
15455;DHT22;21057;51.024;7.540;2023-05-17T05:17:13;9.50;99.90
15455;DHT22;21057;51.024;7.540;2023-05-17T05:19:40;9.50;99.90
15455;DHT22;21057;51.024;7.540;2023-05-17T05:22:07;9.60;99.90
15455;DHT22;21057;51.024;7.540;2023-05-17T05:24:34;9.60;99.90
15455;DHT22;21057;51.024;7.540;2023-05-17T05:27:02;9.40;99.90
15455;DHT22;21057;51.024;7.540;2023-05-17T05:29:29;9.30;99.90
15455;DHT22;21057;51.024;7.540;2023-05-17T05:31:56;9.30;99.90
15455;DHT22;21057;51.024;7.540;2023-05-17T05:34:22;9.30;99.90
15455;DHT22;21057;51.024;7.540;2023-05-17T05:36:49;9.40;99.90
15455;DHT22;21057;51.024;7.540;2023-05-17T05:39:17;9.60;99.90
15455;DHT22;21057;51.024;7.540;2023-05-17T05:41:44;9.60;99.90
15455;DHT22;21057;51.024;7.540;2023-05-17T05:44:13;9.80;99.90
15455;DHT22;21057;51.024;7.540;2023-05-17T05:46:39;9.90;99.90
15455;DHT22;21057;51.024;7.540;2023-05-17T05:49:06;10.10;99.90
15455;DHT22;21057;51.024;7.540;2023-05-17T05:51:33;10.20;99.90
15455;DHT22;21057;51.024;7.540;2023-05-17T05:54:00;10.10;99.90
15455;DHT22;21057;51.024;7.540;2023-05-17T05:56:27;10.40;99.90
15455;DHT22;21057;51.024;7.540;2023-05-17T05:58:55;10.50;99.90
15455;DHT22;21057;51.024;7.540;2023-05-17T06:01:23;10.60;99.90
15455;DHT22;21057;51.024;7.540;2023-05-17T06:03:50;10.60;99.90
15455;DHT22;21057;51.024;7.540;2023-05-17T06:06:17;10.60;99.90
15455;DHT22;21057;51.024;7.540;2023-05-17T06:08:44;10.70;99.90
15455;DHT22;21057;51.024;7.540;2023-05-17T06:11:12;10.90;99.90
15455;DHT22;21057;51.024;7.540;2023-05-17T06:13:39;11.40;99.90
15455;DHT22;21057;51.024;7.540;2023-05-17T06:16:06;11.50;99.90
15455;DHT22;21057;51.024;7.540;2023-05-17T06:18:34;11.10;99.90
15455;DHT22;21057;51.024;7.540;2023-05-17T06:21:01;11.20;99.90
15455;DHT22;21057;51.024;7.540;2023-05-17T06:23:29;11.40;99.90
15455;DHT22;21057;51.024;7.540;2023-05-17T06:25:55;11.60;99.90
15455;DHT22;21057;51.024;7.540;2023-05-17T06:28:22;11.60;99.90
15455;DHT22;21057;51.024;7.540;2023-05-17T06:30:49;11.80;99.90
15455;DHT22;21057;51.024;7.540;2023-05-17T06:33:16;11.70;99.90
15455;DHT22;21057;51.024;7.540;2023-05-17T06:35:44;11.70;99.90
15455;DHT22;21057;51.024;7.540;2023-05-17T06:38:11;11.40;99.90
15455;DHT22;21057;51.024;7.540;2023-05-17T06:40:38;11.40;99.90
15455;DHT22;21057;51.024;7.540;2023-05-17T06:43:05;11.50;99.90
15455;DHT22;21057;51.024;7.540;2023-05-17T06:45:31;11.30;99.90
15455;DHT22;21057;51.024;7.540;2023-05-17T06:47:58;11.20;99.90
15455;DHT22;21057;51.024;7.540;2023-05-17T06:50:25;11.20;99.90
15455;DHT22;21057;51.024;7.540;2023-05-17T06:52:54;11.30;99.90
15455;DHT22;21057;51.024;7.540;2023-05-17T06:55:21;11.60;99.90
15455;DHT22;21057;51.024;7.540;2023-05-17T06:57:47;11.80;99.90
15455;DHT22;21057;51.024;7.540;2023-05-17T07:00:15;11.70;99.90
15455;DHT22;21057;51.024;7.540;2023-05-17T07:02:42;12.00;99.90
15455;DHT22;21057;51.024;7.540;2023-05-17T07:05:09;12.20;99.90
15455;DHT22;21057;51.024;7.540;2023-05-17T07:07:36;12.50;99.90
15455;DHT22;21057;51.024;7.540;2023-05-17T07:10:05;12.50;99.90
15455;DHT22;21057;51.024;7.540;2023-05-17T07:12:32;12.60;99.90
15455;DHT22;21057;51.024;7.540;2023-05-17T07:14:59;12.60;99.90
15455;DHT22;21057;51.024;7.540;2023-05-17T07:17:27;12.90;99.90
15455;DHT22;21057;51.024;7.540;2023-05-17T07:19:54;12.90;99.90
15455;DHT22;21057;51.024;7.540;2023-05-17T07:22:21;13.10;99.90
15455;DHT22;21057;51.024;7.540;2023-05-17T07:24:47;13.10;99.90
15455;DHT22;21057;51.024;7.540;2023-05-17T07:27:16;13.10;99.90
15455;DHT22;21057;51.024;7.540;2023-05-17T07:29:42;12.80;99.90
15455;DHT22;21057;51.024;7.540;2023-05-17T07:32:09;12.60;99.90
15455;DHT22;21057;51.024;7.540;2023-05-17T07:34:36;12.40;99.90
15455;DHT22;21057;51.024;7.540;2023-05-17T07:37:03;12.30;99.90
15455;DHT22;21057;51.024;7.540;2023-05-17T07:39:30;12.20;99.90
15455;DHT22;21057;51.024;7.540;2023-05-17T07:41:57;12.20;99.90
15455;DHT22;21057;51.024;7.540;2023-05-17T07:44:25;12.40;99.90
15455;DHT22;21057;51.024;7.540;2023-05-17T07:46:52;12.40;99.90
15455;DHT22;21057;51.024;7.540;2023-05-17T07:49:19;12.50;99.90
15455;DHT22;21057;51.024;7.540;2023-05-17T07:51:45;12.50;99.90
15455;DHT22;21057;51.024;7.540;2023-05-17T07:54:21;11.90;99.90
15455;DHT22;21057;51.024;7.540;2023-05-17T07:56:49;12.70;99.90
15455;DHT22;21057;51.024;7.540;2023-05-17T07:59:17;13.40;99.90
15455;DHT22;21057;51.024;7.540;2023-05-17T08:01:46;14.00;99.90
15455;DHT22;21057;51.024;7.540;2023-05-17T08:04:13;14.20;99.90
15455;DHT22;21057;51.024;7.540;2023-05-17T08:06:40;14.30;99.90
15455;DHT22;21057;51.024;7.540;2023-05-17T08:09:07;14.60;99.90
15455;DHT22;21057;51.024;7.540;2023-05-17T08:11:35;14.70;99.90
15455;DHT22;21057;51.024;7.540;2023-05-17T08:14:05;14.80;99.90
15455;DHT22;21057;51.024;7.540;2023-05-17T08:16:32;14.90;99.00
15455;DHT22;21057;51.024;7.540;2023-05-17T08:19:00;14.40;98.80
15455;DHT22;21057;51.024;7.540;2023-05-17T08:21:27;14.10;99.90
15455;DHT22;21057;51.024;7.540;2023-05-17T08:23:54;14.20;99.90
15455;DHT22;21057;51.024;7.540;2023-05-17T08:26:21;14.30;99.90
15455;DHT22;21057;51.024;7.540;2023-05-17T08:28:48;14.40;99.90
15455;DHT22;21057;51.024;7.540;2023-05-17T08:31:14;14.60;99.90
15455;DHT22;21057;51.024;7.540;2023-05-17T08:33:41;14.60;97.90
15455;DHT22;21057;51.024;7.540;2023-05-17T08:36:10;15.00;98.90
15455;DHT22;21057;51.024;7.540;2023-05-17T08:38:37;15.90;97.70
15455;DHT22;21057;51.024;7.540;2023-05-17T08:41:03;16.40;94.70
15455;DHT22;21057;51.024;7.540;2023-05-17T08:43:30;16.90;94.10
15455;DHT22;21057;51.024;7.540;2023-05-17T08:45:57;17.00;94.00
15455;DHT22;21057;51.024;7.540;2023-05-17T08:48:25;17.00;94.30
15455;DHT22;21057;51.024;7.540;2023-05-17T08:50:55;16.40;93.50
15455;DHT22;21057;51.024;7.540;2023-05-17T08:53:24;16.00;94.60
15455;DHT22;21057;51.024;7.540;2023-05-17T08:55:54;16.30;94.20
15455;DHT22;21057;51.024;7.540;2023-05-17T08:58:25;16.80;93.70
15455;DHT22;21057;51.024;7.540;2023-05-17T09:00:54;17.50;95.20
15455;DHT22;21057;51.024;7.540;2023-05-17T09:03:22;17.20;92.00
15455;DHT22;21057;51.024;7.540;2023-05-17T09:05:50;17.20;93.50
15455;DHT22;21057;51.024;7.540;2023-05-17T09:08:18;17.30;93.00
15455;DHT22;21057;51.024;7.540;2023-05-17T09:10:47;17.00;91.70
15455;DHT22;21057;51.024;7.540;2023-05-17T09:13:14;16.20;92.50
15455;DHT22;21057;51.024;7.540;2023-05-17T09:15:41;15.90;93.40
15455;DHT22;21057;51.024;7.540;2023-05-17T09:18:09;16.40;94.90
15455;DHT22;21057;51.024;7.540;2023-05-17T09:20:37;17.00;94.70
15455;DHT22;21057;51.024;7.540;2023-05-17T09:23:05;17.80;91.50
15455;DHT22;21057;51.024;7.540;2023-05-17T09:25:32;18.40;92.30
15455;DHT22;21057;51.024;7.540;2023-05-17T09:28:02;19.00;91.80
15455;DHT22;21057;51.024;7.540;2023-05-17T09:30:29;19.00;89.50
15455;DHT22;21057;51.024;7.540;2023-05-17T09:32:57;19.00;88.40
15455;DHT22;21057;51.024;7.540;2023-05-17T09:35:27;19.10;89.10
15455;DHT22;21057;51.024;7.540;2023-05-17T09:37:56;19.30;85.70
15455;DHT22;21057;51.024;7.540;2023-05-17T09:40:30;18.80;82.00
15455;DHT22;21057;51.024;7.540;2023-05-17T09:42:57;18.00;82.00
15455;DHT22;21057;51.024;7.540;2023-05-17T09:45:26;18.30;84.60
15455;DHT22;21057;51.024;7.540;2023-05-17T09:47:53;18.90;82.70
15455;DHT22;21057;51.024;7.540;2023-05-17T09:50:20;19.10;80.40
15455;DHT22;21057;51.024;7.540;2023-05-17T09:52:47;19.80;80.10
15455;DHT22;21057;51.024;7.540;2023-05-17T09:55:14;19.70;79.70
15455;DHT22;21057;51.024;7.540;2023-05-17T09:57:41;20.10;75.60
15455;DHT22;21057;51.024;7.540;2023-05-17T10:00:09;20.10;76.30
15455;DHT22;21057;51.024;7.540;2023-05-17T10:02:38;20.50;78.90
15455;DHT22;21057;51.024;7.540;2023-05-17T10:05:10;20.20;77.00
15455;DHT22;21057;51.024;7.540;2023-05-17T10:07:37;19.80;78.10
15455;DHT22;21057;51.024;7.540;2023-05-17T10:10:06;19.90;77.80
15455;DHT22;21057;51.024;7.540;2023-05-17T10:12:34;20.20;75.10
15455;DHT22;21057;51.024;7.540;2023-05-17T10:15:04;20.50;77.30
15455;DHT22;21057;51.024;7.540;2023-05-17T10:17:32;19.90;72.50
15455;DHT22;21057;51.024;7.540;2023-05-17T10:20:03;19.50;73.40
15455;DHT22;21057;51.024;7.540;2023-05-17T10:22:33;19.80;79.00
15455;DHT22;21057;51.024;7.540;2023-05-17T10:25:00;20.40;73.90
15455;DHT22;21057;51.024;7.540;2023-05-17T10:27:27;21.30;73.10
15455;DHT22;21057;51.024;7.540;2023-05-17T10:30:16;21.70;69.10
15455;DHT22;21057;51.024;7.540;2023-05-17T10:33:01;20.80;70.50
15455;DHT22;21057;51.024;7.540;2023-05-17T10:38:40;19.60;72.90
15455;DHT22;21057;51.024;7.540;2023-05-17T10:41:07;19.40;77.50
15455;DHT22;21057;51.024;7.540;2023-05-17T10:43:36;19.80;72.10
15455;DHT22;21057;51.024;7.540;2023-05-17T10:46:11;20.10;72.50
15455;DHT22;21057;51.024;7.540;2023-05-17T10:48:39;20.90;74.10
15455;DHT22;21057;51.024;7.540;2023-05-17T10:51:07;20.10;72.00
15455;DHT22;21057;51.024;7.540;2023-05-17T10:54:03;19.50;74.10
15455;DHT22;21057;51.024;7.540;2023-05-17T10:56:31;19.50;74.00
15455;DHT22;21057;51.024;7.540;2023-05-17T10:59:18;20.20;69.60
15455;DHT22;21057;51.024;7.540;2023-05-17T11:02:07;20.40;68.70
15455;DHT22;21057;51.024;7.540;2023-05-17T11:04:36;20.10;70.00
15455;DHT22;21057;51.024;7.540;2023-05-17T11:07:26;20.00;70.90
15455;DHT22;21057;51.024;7.540;2023-05-17T11:09:55;20.00;71.70
15455;DHT22;21057;51.024;7.540;2023-05-17T11:12:33;20.60;75.10
15455;DHT22;21057;51.024;7.540;2023-05-17T11:15:04;21.00;69.60
15455;DHT22;21057;51.024;7.540;2023-05-17T11:17:46;21.10;68.50
15455;DHT22;21057;51.024;7.540;2023-05-17T11:20:31;21.30;63.30
15455;DHT22;21057;51.024;7.540;2023-05-17T11:23:02;21.20;62.30
15455;DHT22;21057;51.024;7.540;2023-05-17T11:25:31;21.50;67.20
15455;DHT22;21057;51.024;7.540;2023-05-17T11:28:05;21.70;67.80
15455;DHT22;21057;51.024;7.540;2023-05-17T11:30:33;22.50;66.10
15455;DHT22;21057;51.024;7.540;2023-05-17T11:33:01;22.00;61.70
15455;DHT22;21057;51.024;7.540;2023-05-17T11:35:33;22.50;65.00
15455;DHT22;21057;51.024;7.540;2023-05-17T11:38:14;23.10;64.50
15455;DHT22;21057;51.024;7.540;2023-05-17T11:40:41;21.80;60.60
15455;DHT22;21057;51.024;7.540;2023-05-17T11:43:09;20.70;62.70
15455;DHT22;21057;51.024;7.540;2023-05-17T11:45:44;20.20;63.20
15455;DHT22;21057;51.024;7.540;2023-05-17T11:48:12;20.80;64.00
15455;DHT22;21057;51.024;7.540;2023-05-17T11:50:40;20.40;67.10
15455;DHT22;21057;51.024;7.540;2023-05-17T11:53:08;20.80;67.60
15455;DHT22;21057;51.024;7.540;2023-05-17T11:55:38;21.30;64.30
15455;DHT22;21057;51.024;7.540;2023-05-17T11:58:07;21.60;64.70
15455;DHT22;21057;51.024;7.540;2023-05-17T12:00:35;21.60;63.40
15455;DHT22;21057;51.024;7.540;2023-05-17T12:03:20;21.10;60.90
15455;DHT22;21057;51.024;7.540;2023-05-17T12:05:48;20.10;62.00
15455;DHT22;21057;51.024;7.540;2023-05-17T12:08:17;20.10;67.70
15455;DHT22;21057;51.024;7.540;2023-05-17T12:10:47;21.00;65.80
15455;DHT22;21057;51.024;7.540;2023-05-17T12:13:14;21.60;63.30
15455;DHT22;21057;51.024;7.540;2023-05-17T12:15:44;21.90;65.20
15455;DHT22;21057;51.024;7.540;2023-05-17T12:18:11;22.30;64.90
15455;DHT22;21057;51.024;7.540;2023-05-17T12:20:52;21.60;61.90
15455;DHT22;21057;51.024;7.540;2023-05-17T12:23:26;21.20;64.20
15455;DHT22;21057;51.024;7.540;2023-05-17T12:26:05;21.30;64.40
15455;DHT22;21057;51.024;7.540;2023-05-17T12:28:33;21.50;62.60
15455;DHT22;21057;51.024;7.540;2023-05-17T12:31:01;21.70;63.60
15455;DHT22;21057;51.024;7.540;2023-05-17T12:33:33;21.50;63.20
15455;DHT22;21057;51.024;7.540;2023-05-17T12:36:02;20.50;64.10
15455;DHT22;21057;51.024;7.540;2023-05-17T12:38:30;21.10;65.00
15455;DHT22;21057;51.024;7.540;2023-05-17T12:41:03;21.60;64.80
15455;DHT22;21057;51.024;7.540;2023-05-17T12:43:32;21.30;61.80
15455;DHT22;21057;51.024;7.540;2023-05-17T12:46:04;21.10;63.20
15455;DHT22;21057;51.024;7.540;2023-05-17T12:48:32;21.00;65.80
15455;DHT22;21057;51.024;7.540;2023-05-17T12:51:05;21.40;63.40
15455;DHT22;21057;51.024;7.540;2023-05-17T12:53:39;21.40;61.80
15455;DHT22;21057;51.024;7.540;2023-05-17T12:56:13;21.30;61.70
15455;DHT22;21057;51.024;7.540;2023-05-17T12:58:40;20.60;63.50
15455;DHT22;21057;51.024;7.540;2023-05-17T13:01:07;20.40;65.10
15455;DHT22;21057;51.024;7.540;2023-05-17T13:03:38;20.90;61.70
15455;DHT22;21057;51.024;7.540;2023-05-17T13:06:06;21.40;61.30
15455;DHT22;21057;51.024;7.540;2023-05-17T13:08:35;21.50;66.10
15455;DHT22;21057;51.024;7.540;2023-05-17T13:11:11;21.00;62.50
15455;DHT22;21057;51.024;7.540;2023-05-17T13:13:38;21.50;65.30
15455;DHT22;21057;51.024;7.540;2023-05-17T13:16:05;21.90;59.50
15455;DHT22;21057;51.024;7.540;2023-05-17T13:18:49;21.30;59.40
15455;DHT22;21057;51.024;7.540;2023-05-17T13:21:17;21.50;59.50
15455;DHT22;21057;51.024;7.540;2023-05-17T13:23:46;21.10;58.90
15455;DHT22;21057;51.024;7.540;2023-05-17T13:26:15;20.80;60.90
15455;DHT22;21057;51.024;7.540;2023-05-17T13:28:42;21.10;65.90
15455;DHT22;21057;51.024;7.540;2023-05-17T13:31:08;21.60;63.60
15455;DHT22;21057;51.024;7.540;2023-05-17T13:33:35;21.20;59.40
15455;DHT22;21057;51.024;7.540;2023-05-17T13:36:02;21.20;61.70
15455;DHT22;21057;51.024;7.540;2023-05-17T13:38:29;22.00;63.70
15455;DHT22;21057;51.024;7.540;2023-05-17T13:40:56;22.90;65.40
15455;DHT22;21057;51.024;7.540;2023-05-17T13:43:24;23.20;57.30
15455;DHT22;21057;51.024;7.540;2023-05-17T13:45:51;23.60;57.30
15455;DHT22;21057;51.024;7.540;2023-05-17T13:48:21;23.70;56.90
15455;DHT22;21057;51.024;7.540;2023-05-17T13:50:48;23.00;57.30
15455;DHT22;21057;51.024;7.540;2023-05-17T13:53:15;21.20;57.40
15455;DHT22;21057;51.024;7.540;2023-05-17T13:55:42;20.40;59.60
15455;DHT22;21057;51.024;7.540;2023-05-17T13:58:09;19.70;60.40
15455;DHT22;21057;51.024;7.540;2023-05-17T14:00:37;19.80;61.90
15455;DHT22;21057;51.024;7.540;2023-05-17T14:03:07;20.40;64.20
15455;DHT22;21057;51.024;7.540;2023-05-17T14:05:33;20.50;60.90
15455;DHT22;21057;51.024;7.540;2023-05-17T14:08:01;21.10;59.70
15455;DHT22;21057;51.024;7.540;2023-05-17T14:10:28;20.60;62.40
15455;DHT22;21057;51.024;7.540;2023-05-17T14:12:55;19.90;60.90
15455;DHT22;21057;51.024;7.540;2023-05-17T14:15:22;19.30;63.60
15455;DHT22;21057;51.024;7.540;2023-05-17T14:17:50;19.20;64.40
15455;DHT22;21057;51.024;7.540;2023-05-17T14:20:17;19.70;63.40
15455;DHT22;21057;51.024;7.540;2023-05-17T14:22:44;20.20;67.30
15455;DHT22;21057;51.024;7.540;2023-05-17T14:25:11;20.60;63.50
15455;DHT22;21057;51.024;7.540;2023-05-17T14:27:38;21.10;59.00
15455;DHT22;21057;51.024;7.540;2023-05-17T14:30:06;21.30;62.00
15455;DHT22;21057;51.024;7.540;2023-05-17T14:32:33;21.60;60.00
15455;DHT22;21057;51.024;7.540;2023-05-17T14:35:05;21.20;61.30
15455;DHT22;21057;51.024;7.540;2023-05-17T14:37:32;21.10;63.30
15455;DHT22;21057;51.024;7.540;2023-05-17T14:39:59;21.20;59.10
15455;DHT22;21057;51.024;7.540;2023-05-17T14:42:26;21.50;62.60
15455;DHT22;21057;51.024;7.540;2023-05-17T14:44:53;21.10;58.50
15455;DHT22;21057;51.024;7.540;2023-05-17T14:47:20;21.00;58.60
15455;DHT22;21057;51.024;7.540;2023-05-17T14:49:47;21.20;59.30
15455;DHT22;21057;51.024;7.540;2023-05-17T14:52:15;20.60;59.00
15455;DHT22;21057;51.024;7.540;2023-05-17T14:54:42;20.50;63.20
15455;DHT22;21057;51.024;7.540;2023-05-17T14:57:09;20.80;64.70
15455;DHT22;21057;51.024;7.540;2023-05-17T14:59:36;21.20;62.00
15455;DHT22;21057;51.024;7.540;2023-05-17T15:02:03;21.20;61.30
15455;DHT22;21057;51.024;7.540;2023-05-17T15:04:30;21.00;61.10
15455;DHT22;21057;51.024;7.540;2023-05-17T15:06:57;21.30;61.00
15455;DHT22;21057;51.024;7.540;2023-05-17T15:09:25;20.90;59.50
15455;DHT22;21057;51.024;7.540;2023-05-17T15:11:55;21.00;61.00
15455;DHT22;21057;51.024;7.540;2023-05-17T15:14:22;20.60;60.40
15455;DHT22;21057;51.024;7.540;2023-05-17T15:16:50;20.80;64.30
15455;DHT22;21057;51.024;7.540;2023-05-17T15:19:18;20.90;57.80
15455;DHT22;21057;51.024;7.540;2023-05-17T15:21:44;20.60;61.40
15455;DHT22;21057;51.024;7.540;2023-05-17T15:24:11;20.70;62.20
15455;DHT22;21057;51.024;7.540;2023-05-17T15:26:39;20.80;61.60
15455;DHT22;21057;51.024;7.540;2023-05-17T15:29:06;20.70;60.80
15455;DHT22;21057;51.024;7.540;2023-05-17T15:31:33;20.40;61.20
15455;DHT22;21057;51.024;7.540;2023-05-17T15:34:00;19.80;62.90
15455;DHT22;21057;51.024;7.540;2023-05-17T15:36:27;19.70;64.20
15455;DHT22;21057;51.024;7.540;2023-05-17T15:38:54;19.70;62.80
15455;DHT22;21057;51.024;7.540;2023-05-17T15:41:21;19.80;63.40
15455;DHT22;21057;51.024;7.540;2023-05-17T15:43:53;19.90;62.70
15455;DHT22;21057;51.024;7.540;2023-05-17T15:46:20;20.00;62.00
15455;DHT22;21057;51.024;7.540;2023-05-17T15:48:46;20.00;61.60
15455;DHT22;21057;51.024;7.540;2023-05-17T15:51:13;19.70;61.70